Terminal Aerodrome Forecast
Issued by NWS

Current Version | Previous Version | Graphics & Text | Print | Product List | Glossary On
Versions: 1 2 3 4 5 6 7 8 9 10 11 12 13 14 15 16 17 18 19 20 21 22 23 24 25 26 27 28 29 30 31 32 33 34 35 36 37 38 39 40 41 42 43 44
000
FTUS41 KRNK 010826 AAA
TAFLWB
TAF AMD
KLWB 010826Z 0108/0206 00000KT P6SM BKN030 OVC060
      TEMPO 0110/0112 5SM -SHRA BR BKN035
     FM011330 26005KT P6SM BKN030
     FM011600 27007KT P6SM SCT045
     FM020100 VRB03KT P6SM BKN045=

USA.gov is the U.S. government's official web portal to all federal, state and local government web resources and services.